sensor_id;sensor_type;location;lat;lon;timestamp;P1;durP1;ratioP1;P2;durP2;ratioP2
26271;SDS011;13997;48.902;12.472;2023-03-03T00:01:30;35.08;;;16.45;;
26271;SDS011;13997;48.902;12.472;2023-03-03T00:03:57;41.08;;;15.82;;
26271;SDS011;13997;48.902;12.472;2023-03-03T00:06:23;28.50;;;15.25;;
26271;SDS011;13997;48.902;12.472;2023-03-03T00:08:49;30.70;;;15.55;;
26271;SDS011;13997;48.902;12.472;2023-03-03T00:11:15;29.85;;;15.25;;
26271;SDS011;13997;48.902;12.472;2023-03-03T00:13:46;34.70;;;15.60;;
26271;SDS011;13997;48.902;12.472;2023-03-03T00:16:15;33.90;;;16.17;;
26271;SDS011;13997;48.902;12.472;2023-03-03T00:18:42;38.30;;;16.50;;
26271;SDS011;13997;48.902;12.472;2023-03-03T00:21:16;36.85;;;17.45;;
26271;SDS011;13997;48.902;12.472;2023-03-03T00:26:41;30.83;;;14.93;;
26271;SDS011;13997;48.902;12.472;2023-03-03T00:34:39;34.25;;;16.75;;
26271;SDS011;13997;48.902;12.472;2023-03-03T00:37:18;48.63;;;17.95;;
26271;SDS011;13997;48.902;12.472;2023-03-03T00:39:48;40.17;;;17.30;;
26271;SDS011;13997;48.902;12.472;2023-03-03T00:42:15;32.70;;;16.30;;
26271;SDS011;13997;48.902;12.472;2023-03-03T00:44:48;40.30;;;16.83;;
26271;SDS011;13997;48.902;12.472;2023-03-03T00:47:24;40.47;;;16.30;;
26271;SDS011;13997;48.902;12.472;2023-03-03T00:52:32;39.25;;;17.67;;
26271;SDS011;13997;48.902;12.472;2023-03-03T00:55:04;37.83;;;17.52;;
26271;SDS011;13997;48.902;12.472;2023-03-03T00:57:30;40.83;;;18.60;;
26271;SDS011;13997;48.902;12.472;2023-03-03T00:59:56;42.58;;;19.25;;
26271;SDS011;13997;48.902;12.472;2023-03-03T01:02:21;44.00;;;19.83;;
26271;SDS011;13997;48.902;12.472;2023-03-03T01:04:50;44.75;;;19.92;;
26271;SDS011;13997;48.902;12.472;2023-03-03T01:07:17;44.30;;;19.98;;
26271;SDS011;13997;48.902;12.472;2023-03-03T01:09:43;42.72;;;20.05;;
26271;SDS011;13997;48.902;12.472;2023-03-03T01:12:10;42.58;;;20.27;;
26271;SDS011;13997;48.902;12.472;2023-03-03T01:14:36;42.63;;;19.67;;
26271;SDS011;13997;48.902;12.472;2023-03-03T01:17:02;44.58;;;21.88;;
26271;SDS011;13997;48.902;12.472;2023-03-03T01:19:27;48.53;;;21.65;;
26271;SDS011;13997;48.902;12.472;2023-03-03T01:21:53;48.88;;;22.95;;
26271;SDS011;13997;48.902;12.472;2023-03-03T01:24:19;54.20;;;24.15;;
26271;SDS011;13997;48.902;12.472;2023-03-03T01:26:44;52.92;;;24.00;;
26271;SDS011;13997;48.902;12.472;2023-03-03T01:29:10;54.33;;;25.08;;
26271;SDS011;13997;48.902;12.472;2023-03-03T01:31:36;56.00;;;25.38;;
26271;SDS011;13997;48.902;12.472;2023-03-03T01:34:01;53.72;;;24.90;;
26271;SDS011;13997;48.902;12.472;2023-03-03T01:36:27;49.22;;;22.17;;
26271;SDS011;13997;48.902;12.472;2023-03-03T01:38:53;44.53;;;20.27;;
26271;SDS011;13997;48.902;12.472;2023-03-03T01:41:19;45.40;;;21.48;;
26271;SDS011;13997;48.902;12.472;2023-03-03T01:43:45;45.10;;;20.85;;
26271;SDS011;13997;48.902;12.472;2023-03-03T01:49:06;45.53;;;21.58;;
26271;SDS011;13997;48.902;12.472;2023-03-03T01:51:40;48.53;;;22.73;;
26271;SDS011;13997;48.902;12.472;2023-03-03T01:54:13;48.50;;;21.52;;
26271;SDS011;13997;48.902;12.472;2023-03-03T01:56:47;49.80;;;21.40;;
26271;SDS011;13997;48.902;12.472;2023-03-03T01:59:19;45.65;;;22.05;;
26271;SDS011;13997;48.902;12.472;2023-03-03T02:01:47;47.13;;;22.55;;
26271;SDS011;13997;48.902;12.472;2023-03-03T02:04:13;48.85;;;21.70;;
26271;SDS011;13997;48.902;12.472;2023-03-03T02:06:40;47.70;;;21.85;;
26271;SDS011;13997;48.902;12.472;2023-03-03T02:09:11;41.28;;;20.02;;
26271;SDS011;13997;48.902;12.472;2023-03-03T02:11:48;46.15;;;21.52;;
26271;SDS011;13997;48.902;12.472;2023-03-03T02:14:16;43.90;;;20.70;;
26271;SDS011;13997;48.902;12.472;2023-03-03T02:16:42;42.58;;;19.27;;
26271;SDS011;13997;48.902;12.472;2023-03-03T02:19:12;48.40;;;20.30;;
26271;SDS011;13997;48.902;12.472;2023-03-03T02:21:59;39.20;;;19.63;;
26271;SDS011;13997;48.902;12.472;2023-03-03T02:24:32;40.33;;;18.90;;
26271;SDS011;13997;48.902;12.472;2023-03-03T02:27:03;48.40;;;20.05;;
26271;SDS011;13997;48.902;12.472;2023-03-03T02:29:28;38.05;;;19.40;;
26271;SDS011;13997;48.902;12.472;2023-03-03T02:31:54;42.80;;;20.00;;
26271;SDS011;13997;48.902;12.472;2023-03-03T02:34:20;42.28;;;19.33;;
26271;SDS011;13997;48.902;12.472;2023-03-03T02:36:46;44.75;;;20.95;;
26271;SDS011;13997;48.902;12.472;2023-03-03T02:39:21;44.38;;;20.15;;
26271;SDS011;13997;48.902;12.472;2023-03-03T02:42:02;43.30;;;20.15;;
26271;SDS011;13997;48.902;12.472;2023-03-03T02:44:33;44.03;;;20.70;;
26271;SDS011;13997;48.902;12.472;2023-03-03T02:46:59;43.95;;;20.02;;
26271;SDS011;13997;48.902;12.472;2023-03-03T02:49:26;49.08;;;21.23;;
26271;SDS011;13997;48.902;12.472;2023-03-03T02:51:53;43.97;;;19.88;;
26271;SDS011;13997;48.902;12.472;2023-03-03T02:54:20;40.67;;;20.23;;
26271;SDS011;13997;48.902;12.472;2023-03-03T02:56:47;42.35;;;20.13;;
26271;SDS011;13997;48.902;12.472;2023-03-03T02:59:13;39.60;;;19.40;;
26271;SDS011;13997;48.902;12.472;2023-03-03T03:01:39;47.47;;;20.00;;
26271;SDS011;13997;48.902;12.472;2023-03-03T03:04:12;48.15;;;19.92;;
26271;SDS011;13997;48.902;12.472;2023-03-03T03:06:43;40.58;;;17.80;;
26271;SDS011;13997;48.902;12.472;2023-03-03T03:09:09;40.78;;;18.15;;
26271;SDS011;13997;48.902;12.472;2023-03-03T03:11:36;36.35;;;18.98;;
26271;SDS011;13997;48.902;12.472;2023-03-03T03:14:02;34.55;;;17.80;;
26271;SDS011;13997;48.902;12.472;2023-03-03T03:16:29;33.90;;;16.98;;
26271;SDS011;13997;48.902;12.472;2023-03-03T03:18:55;37.47;;;19.17;;
26271;SDS011;13997;48.902;12.472;2023-03-03T03:21:21;45.65;;;18.75;;
26271;SDS011;13997;48.902;12.472;2023-03-03T03:23:47;46.42;;;18.65;;
26271;SDS011;13997;48.902;12.472;2023-03-03T03:26:13;43.85;;;19.95;;
26271;SDS011;13997;48.902;12.472;2023-03-03T03:28:38;49.90;;;20.45;;
26271;SDS011;13997;48.902;12.472;2023-03-03T03:31:04;47.28;;;20.95;;
26271;SDS011;13997;48.902;12.472;2023-03-03T03:33:31;41.85;;;19.88;;
26271;SDS011;13997;48.902;12.472;2023-03-03T03:35:57;45.70;;;20.45;;
26271;SDS011;13997;48.902;12.472;2023-03-03T03:38:24;44.67;;;20.90;;
26271;SDS011;13997;48.902;12.472;2023-03-03T03:40:51;52.15;;;21.92;;
26271;SDS011;13997;48.902;12.472;2023-03-03T03:43:16;47.17;;;19.83;;
26271;SDS011;13997;48.902;12.472;2023-03-03T03:45:42;42.13;;;19.48;;
26271;SDS011;13997;48.902;12.472;2023-03-03T03:48:08;41.60;;;20.17;;
26271;SDS011;13997;48.902;12.472;2023-03-03T03:50:34;45.35;;;19.63;;
26271;SDS011;13997;48.902;12.472;2023-03-03T03:53:01;37.90;;;18.35;;
26271;SDS011;13997;48.902;12.472;2023-03-03T03:55:26;46.10;;;20.92;;
26271;SDS011;13997;48.902;12.472;2023-03-03T03:57:54;40.20;;;19.55;;
26271;SDS011;13997;48.902;12.472;2023-03-03T04:00:20;48.30;;;21.15;;
26271;SDS011;13997;48.902;12.472;2023-03-03T04:02:46;48.15;;;21.98;;
26271;SDS011;13997;48.902;12.472;2023-03-03T04:05:11;44.15;;;20.35;;
26271;SDS011;13997;48.902;12.472;2023-03-03T04:07:37;48.00;;;21.02;;
26271;SDS011;13997;48.902;12.472;2023-03-03T04:10:03;44.10;;;20.92;;
26271;SDS011;13997;48.902;12.472;2023-03-03T04:12:28;42.47;;;21.80;;
26271;SDS011;13997;48.902;12.472;2023-03-03T04:14:59;49.85;;;21.75;;
26271;SDS011;13997;48.902;12.472;2023-03-03T04:17:25;50.40;;;22.45;;
26271;SDS011;13997;48.902;12.472;2023-03-03T04:19:53;44.83;;;21.05;;
26271;SDS011;13997;48.902;12.472;2023-03-03T04:22:19;43.85;;;20.88;;
26271;SDS011;13997;48.902;12.472;2023-03-03T04:24:44;48.05;;;22.33;;
26271;SDS011;13997;48.902;12.472;2023-03-03T04:27:12;46.88;;;20.58;;
26271;SDS011;13997;48.902;12.472;2023-03-03T04:29:39;46.17;;;21.10;;
26271;SDS011;13997;48.902;12.472;2023-03-03T04:32:05;40.97;;;20.63;;
26271;SDS011;13997;48.902;12.472;2023-03-03T04:34:31;45.95;;;21.60;;
26271;SDS011;13997;48.902;12.472;2023-03-03T04:36:57;44.33;;;20.98;;
26271;SDS011;13997;48.902;12.472;2023-03-03T04:39:23;43.13;;;20.02;;
26271;SDS011;13997;48.902;12.472;2023-03-03T04:41:48;40.25;;;20.83;;
26271;SDS011;13997;48.902;12.472;2023-03-03T04:44:14;40.17;;;18.95;;
26271;SDS011;13997;48.902;12.472;2023-03-03T04:46:40;37.35;;;19.05;;
26271;SDS011;13997;48.902;12.472;2023-03-03T04:49:05;42.97;;;19.23;;
26271;SDS011;13997;48.902;12.472;2023-03-03T04:51:32;60.25;;;27.13;;
26271;SDS011;13997;48.902;12.472;2023-03-03T04:53:59;56.95;;;23.95;;
26271;SDS011;13997;48.902;12.472;2023-03-03T04:56:24;44.40;;;20.25;;
26271;SDS011;13997;48.902;12.472;2023-03-03T04:58:50;40.35;;;19.15;;
26271;SDS011;13997;48.902;12.472;2023-03-03T05:01:16;43.25;;;20.42;;
26271;SDS011;13997;48.902;12.472;2023-03-03T05:03:43;39.40;;;19.63;;
26271;SDS011;13997;48.902;12.472;2023-03-03T05:06:09;46.78;;;19.92;;
26271;SDS011;13997;48.902;12.472;2023-03-03T05:08:34;42.22;;;20.70;;
26271;SDS011;13997;48.902;12.472;2023-03-03T05:11:00;46.40;;;20.95;;
26271;SDS011;13997;48.902;12.472;2023-03-03T05:13:26;44.75;;;20.13;;
26271;SDS011;13997;48.902;12.472;2023-03-03T05:15:52;46.60;;;20.98;;
26271;SDS011;13997;48.902;12.472;2023-03-03T05:18:20;41.08;;;20.65;;
26271;SDS011;13997;48.902;12.472;2023-03-03T05:20:49;48.95;;;21.15;;
26271;SDS011;13997;48.902;12.472;2023-03-03T05:23:16;45.50;;;20.98;;
26271;SDS011;13997;48.902;12.472;2023-03-03T05:25:42;45.70;;;20.20;;
26271;SDS011;13997;48.902;12.472;2023-03-03T05:28:09;43.30;;;20.67;;
26271;SDS011;13997;48.902;12.472;2023-03-03T05:30:35;43.80;;;20.88;;
26271;SDS011;13997;48.902;12.472;2023-03-03T05:33:02;46.33;;;21.25;;
26271;SDS011;13997;48.902;12.472;2023-03-03T05:35:28;47.63;;;22.20;;
26271;SDS011;13997;48.902;12.472;2023-03-03T05:37:54;51.53;;;21.52;;
26271;SDS011;13997;48.902;12.472;2023-03-03T05:40:22;43.30;;;20.90;;
26271;SDS011;13997;48.902;12.472;2023-03-03T05:42:48;45.55;;;20.65;;
26271;SDS011;13997;48.902;12.472;2023-03-03T05:45:14;44.75;;;21.05;;
26271;SDS011;13997;48.902;12.472;2023-03-03T05:47:40;52.13;;;21.65;;
26271;SDS011;13997;48.902;12.472;2023-03-03T05:50:05;47.53;;;21.38;;
26271;SDS011;13997;48.902;12.472;2023-03-03T05:52:31;39.72;;;19.95;;
26271;SDS011;13997;48.902;12.472;2023-03-03T05:54:57;52.53;;;21.88;;
26271;SDS011;13997;48.902;12.472;2023-03-03T05:57:22;44.45;;;22.17;;
26271;SDS011;13997;48.902;12.472;2023-03-03T05:59:48;50.90;;;22.13;;
26271;SDS011;13997;48.902;12.472;2023-03-03T06:02:13;48.17;;;22.08;;
26271;SDS011;13997;48.902;12.472;2023-03-03T06:04:39;55.88;;;22.48;;
26271;SDS011;13997;48.902;12.472;2023-03-03T06:07:05;42.08;;;20.70;;
26271;SDS011;13997;48.902;12.472;2023-03-03T06:09:31;50.33;;;22.10;;
26271;SDS011;13997;48.902;12.472;2023-03-03T06:11:57;47.38;;;22.27;;
26271;SDS011;13997;48.902;12.472;2023-03-03T06:14:22;44.90;;;21.67;;
26271;SDS011;13997;48.902;12.472;2023-03-03T06:16:48;47.10;;;22.73;;
26271;SDS011;13997;48.902;12.472;2023-03-03T06:19:13;50.85;;;23.02;;
26271;SDS011;13997;48.902;12.472;2023-03-03T06:21:39;54.80;;;25.30;;
26271;SDS011;13997;48.902;12.472;2023-03-03T06:24:05;58.38;;;24.80;;
26271;SDS011;13997;48.902;12.472;2023-03-03T06:26:31;57.88;;;25.35;;
26271;SDS011;13997;48.902;12.472;2023-03-03T06:28:57;52.17;;;25.65;;
26271;SDS011;13997;48.902;12.472;2023-03-03T06:31:23;54.35;;;25.10;;
26271;SDS011;13997;48.902;12.472;2023-03-03T06:33:49;54.95;;;25.20;;
26271;SDS011;13997;48.902;12.472;2023-03-03T06:36:15;56.45;;;26.15;;
26271;SDS011;13997;48.902;12.472;2023-03-03T06:38:41;61.20;;;26.23;;
26271;SDS011;13997;48.902;12.472;2023-03-03T06:41:07;55.65;;;26.02;;
26271;SDS011;13997;48.902;12.472;2023-03-03T06:43:33;53.28;;;25.45;;
26271;SDS011;13997;48.902;12.472;2023-03-03T06:45:59;54.88;;;25.15;;
26271;SDS011;13997;48.902;12.472;2023-03-03T06:48:25;53.85;;;26.08;;
26271;SDS011;13997;48.902;12.472;2023-03-03T06:50:50;50.10;;;24.27;;
26271;SDS011;13997;48.902;12.472;2023-03-03T06:53:17;49.53;;;25.25;;
26271;SDS011;13997;48.902;12.472;2023-03-03T06:55:43;57.75;;;26.02;;
26271;SDS011;13997;48.902;12.472;2023-03-03T06:58:13;53.20;;;23.55;;
26271;SDS011;13997;48.902;12.472;2023-03-03T07:03:11;54.75;;;25.20;;
26271;SDS011;13997;48.902;12.472;2023-03-03T07:05:40;53.95;;;26.20;;
26271;SDS011;13997;48.902;12.472;2023-03-03T07:08:08;55.88;;;26.27;;
26271;SDS011;13997;48.902;12.472;2023-03-03T07:10:41;63.00;;;27.30;;
26271;SDS011;13997;48.902;12.472;2023-03-03T07:13:24;66.95;;;28.33;;
26271;SDS011;13997;48.902;12.472;2023-03-03T07:15:52;61.78;;;29.10;;
26271;SDS011;13997;48.902;12.472;2023-03-03T07:18:31;69.50;;;31.05;;
26271;SDS011;13997;48.902;12.472;2023-03-03T07:21:22;58.45;;;28.83;;
26271;SDS011;13997;48.902;12.472;2023-03-03T07:23:54;66.90;;;31.13;;
26271;SDS011;13997;48.902;12.472;2023-03-03T07:26:22;62.45;;;29.95;;
26271;SDS011;13997;48.902;12.472;2023-03-03T07:28:59;68.30;;;30.70;;
26271;SDS011;13997;48.902;12.472;2023-03-03T07:31:48;68.10;;;31.63;;
26271;SDS011;13997;48.902;12.472;2023-03-03T07:34:20;69.38;;;31.83;;
26271;SDS011;13997;48.902;12.472;2023-03-03T07:36:57;66.90;;;30.20;;
26271;SDS011;13997;48.902;12.472;2023-03-03T07:39:38;61.03;;;30.90;;
26271;SDS011;13997;48.902;12.472;2023-03-03T07:42:14;65.05;;;31.38;;
26271;SDS011;13997;48.902;12.472;2023-03-03T07:44:53;69.75;;;31.63;;
26271;SDS011;13997;48.902;12.472;2023-03-03T07:47:23;70.68;;;31.45;;
26271;SDS011;13997;48.902;12.472;2023-03-03T07:49:55;61.85;;;30.05;;
26271;SDS011;13997;48.902;12.472;2023-03-03T07:52:31;57.45;;;28.98;;
26271;SDS011;13997;48.902;12.472;2023-03-03T07:57:43;63.97;;;29.88;;
26271;SDS011;13997;48.902;12.472;2023-03-03T08:02:42;58.67;;;28.00;;
26271;SDS011;13997;48.902;12.472;2023-03-03T08:07:51;64.18;;;30.08;;
26271;SDS011;13997;48.902;12.472;2023-03-03T08:10:28;63.08;;;31.25;;
26271;SDS011;13997;48.902;12.472;2023-03-03T08:13:01;63.78;;;29.35;;
26271;SDS011;13997;48.902;12.472;2023-03-03T08:15:39;54.17;;;26.27;;
26271;SDS011;13997;48.902;12.472;2023-03-03T08:18:13;55.35;;;28.63;;
26271;SDS011;13997;48.902;12.472;2023-03-03T08:20:46;61.38;;;27.98;;
26271;SDS011;13997;48.902;12.472;2023-03-03T08:23:13;47.72;;;26.25;;
26271;SDS011;13997;48.902;12.472;2023-03-03T08:25:40;54.47;;;27.25;;
26271;SDS011;13997;48.902;12.472;2023-03-03T08:28:06;60.92;;;28.25;;
26271;SDS011;13997;48.902;12.472;2023-03-03T08:30:33;56.85;;;28.85;;
26271;SDS011;13997;48.902;12.472;2023-03-03T08:32:58;54.33;;;27.17;;
26271;SDS011;13997;48.902;12.472;2023-03-03T08:35:25;56.60;;;27.75;;
26271;SDS011;13997;48.902;12.472;2023-03-03T08:37:51;59.90;;;28.58;;
26271;SDS011;13997;48.902;12.472;2023-03-03T08:40:16;67.30;;;29.17;;
26271;SDS011;13997;48.902;12.472;2023-03-03T08:42:42;63.95;;;30.23;;
26271;SDS011;13997;48.902;12.472;2023-03-03T08:45:07;59.00;;;29.15;;
26271;SDS011;13997;48.902;12.472;2023-03-03T08:47:33;57.72;;;29.05;;
26271;SDS011;13997;48.902;12.472;2023-03-03T08:49:59;63.25;;;28.98;;
26271;SDS011;13997;48.902;12.472;2023-03-03T08:52:24;55.28;;;29.27;;
26271;SDS011;13997;48.902;12.472;2023-03-03T08:54:50;58.90;;;29.63;;
26271;SDS011;13997;48.902;12.472;2023-03-03T08:57:16;55.97;;;28.73;;
26271;SDS011;13997;48.902;12.472;2023-03-03T08:59:43;56.40;;;28.83;;
26271;SDS011;13997;48.902;12.472;2023-03-03T09:02:09;56.42;;;28.02;;
26271;SDS011;13997;48.902;12.472;2023-03-03T09:04:34;58.22;;;30.70;;
26271;SDS011;13997;48.902;12.472;2023-03-03T09:07:00;55.70;;;28.00;;
26271;SDS011;13997;48.902;12.472;2023-03-03T09:09:26;58.30;;;29.15;;
26271;SDS011;13997;48.902;12.472;2023-03-03T09:11:57;56.72;;;28.58;;
26271;SDS011;13997;48.902;12.472;2023-03-03T09:14:25;60.33;;;28.95;;
26271;SDS011;13997;48.902;12.472;2023-03-03T09:16:53;57.58;;;28.15;;
26271;SDS011;13997;48.902;12.472;2023-03-03T09:19:28;54.58;;;26.58;;
26271;SDS011;13997;48.902;12.472;2023-03-03T09:21:58;53.25;;;28.13;;
26271;SDS011;13997;48.902;12.472;2023-03-03T09:24:35;58.42;;;30.73;;
26271;SDS011;13997;48.902;12.472;2023-03-03T09:27:01;59.13;;;29.38;;
26271;SDS011;13997;48.902;12.472;2023-03-03T09:29:36;60.42;;;29.08;;
26271;SDS011;13997;48.902;12.472;2023-03-03T09:34:48;55.95;;;29.05;;
26271;SDS011;13997;48.902;12.472;2023-03-03T09:40:15;54.35;;;29.02;;
26271;SDS011;13997;48.902;12.472;2023-03-03T09:43:27;58.15;;;29.25;;
26271;SDS011;13997;48.902;12.472;2023-03-03T09:46:15;55.55;;;29.67;;
26271;SDS011;13997;48.902;12.472;2023-03-03T09:48:56;56.33;;;29.30;;
26271;SDS011;13997;48.902;12.472;2023-03-03T09:51:37;59.60;;;30.40;;
26271;SDS011;13997;48.902;12.472;2023-03-03T09:54:30;56.55;;;29.17;;
26271;SDS011;13997;48.902;12.472;2023-03-03T09:57:13;56.10;;;29.17;;
26271;SDS011;13997;48.902;12.472;2023-03-03T09:59:57;61.60;;;30.35;;
26271;SDS011;13997;48.902;12.472;2023-03-03T10:11:23;55.10;;;30.00;;
26271;SDS011;13997;48.902;12.472;2023-03-03T10:16:41;59.10;;;30.15;;
26271;SDS011;13997;48.902;12.472;2023-03-03T10:19:32;55.90;;;29.23;;
26271;SDS011;13997;48.902;12.472;2023-03-03T10:22:18;58.90;;;30.20;;
26271;SDS011;13997;48.902;12.472;2023-03-03T10:57:16;58.15;;;29.73;;
26271;SDS011;13997;48.902;12.472;2023-03-03T11:02:48;57.85;;;28.55;;
26271;SDS011;13997;48.902;12.472;2023-03-03T11:05:31;54.35;;;29.20;;
26271;SDS011;13997;48.902;12.472;2023-03-03T11:11:15;55.88;;;28.90;;
26271;SDS011;13997;48.902;12.472;2023-03-03T11:16:44;53.63;;;27.13;;
26271;SDS011;13997;48.902;12.472;2023-03-03T11:33:25;40.95;;;22.23;;
26271;SDS011;13997;48.902;12.472;2023-03-03T11:54:51;41.90;;;24.08;;
26271;SDS011;13997;48.902;12.472;2023-03-03T11:57:57;46.22;;;23.15;;
26271;SDS011;13997;48.902;12.472;2023-03-03T12:01:04;41.55;;;23.58;;
26271;SDS011;13997;48.902;12.472;2023-03-03T12:06:03;41.22;;;22.88;;
26271;SDS011;13997;48.902;12.472;2023-03-03T12:09:03;46.00;;;23.55;;
26271;SDS011;13997;48.902;12.472;2023-03-03T12:22:31;41.63;;;24.08;;
26271;SDS011;13997;48.902;12.472;2023-03-03T12:25:21;45.42;;;24.63;;
26271;SDS011;13997;48.902;12.472;2023-03-03T12:33:49;39.72;;;22.35;;
26271;SDS011;13997;48.902;12.472;2023-03-03T12:36:20;40.80;;;23.98;;
26271;SDS011;13997;48.902;12.472;2023-03-03T12:39:05;47.95;;;23.48;;
26271;SDS011;13997;48.902;12.472;2023-03-03T12:41:51;46.42;;;22.42;;
26271;SDS011;13997;48.902;12.472;2023-03-03T12:44:59;44.03;;;22.90;;
26271;SDS011;13997;48.902;12.472;2023-03-03T12:52:45;38.70;;;21.13;;
26271;SDS011;13997;48.902;12.472;2023-03-03T12:58:36;50.63;;;21.73;;
26271;SDS011;13997;48.902;12.472;2023-03-03T13:04:07;39.45;;;19.92;;
26271;SDS011;13997;48.902;12.472;2023-03-03T13:12:49;37.08;;;19.77;;
26271;SDS011;13997;48.902;12.472;2023-03-03T13:15:26;55.35;;;20.95;;
26271;SDS011;13997;48.902;12.472;2023-03-03T13:29:04;35.17;;;17.90;;
26271;SDS011;13997;48.902;12.472;2023-03-03T13:31:50;35.05;;;17.92;;
26271;SDS011;13997;48.902;12.472;2023-03-03T13:40:18;35.88;;;19.30;;
26271;SDS011;13997;48.902;12.472;2023-03-03T13:50:52;31.60;;;17.85;;
26271;SDS011;13997;48.902;12.472;2023-03-03T14:12:39;38.90;;;18.77;;
26271;SDS011;13997;48.902;12.472;2023-03-03T14:15:23;41.40;;;19.30;;
26271;SDS011;13997;48.902;12.472;2023-03-03T14:21:04;31.50;;;18.00;;
26271;SDS011;13997;48.902;12.472;2023-03-03T14:23:52;36.53;;;18.98;;
26271;SDS011;13997;48.902;12.472;2023-03-03T14:26:50;39.97;;;19.23;;
26271;SDS011;13997;48.902;12.472;2023-03-03T14:31:55;43.15;;;19.33;;
26271;SDS011;13997;48.902;12.472;2023-03-03T14:36:51;35.88;;;19.17;;
26271;SDS011;13997;48.902;12.472;2023-03-03T14:41:57;32.58;;;18.60;;
26271;SDS011;13997;48.902;12.472;2023-03-03T14:44:26;38.83;;;18.52;;
26271;SDS011;13997;48.902;12.472;2023-03-03T14:49:48;37.70;;;20.23;;
26271;SDS011;13997;48.902;12.472;2023-03-03T14:54:45;38.35;;;20.27;;
26271;SDS011;13997;48.902;12.472;2023-03-03T15:07:51;39.58;;;20.98;;
26271;SDS011;13997;48.902;12.472;2023-03-03T15:10:26;37.70;;;20.95;;
26271;SDS011;13997;48.902;12.472;2023-03-03T15:12:53;39.15;;;20.42;;
26271;SDS011;13997;48.902;12.472;2023-03-03T15:15:20;43.13;;;20.80;;
26271;SDS011;13997;48.902;12.472;2023-03-03T15:23:24;32.92;;;18.58;;
26271;SDS011;13997;48.902;12.472;2023-03-03T15:26:07;46.88;;;21.45;;
26271;SDS011;13997;48.902;12.472;2023-03-03T15:42:48;34.38;;;20.00;;
26271;SDS011;13997;48.902;12.472;2023-03-03T15:48:20;35.03;;;19.08;;
26271;SDS011;13997;48.902;12.472;2023-03-03T15:57:18;39.03;;;19.90;;
26271;SDS011;13997;48.902;12.472;2023-03-03T16:02:21;36.35;;;20.38;;
26271;SDS011;13997;48.902;12.472;2023-03-03T16:15:47;36.47;;;19.80;;
26271;SDS011;13997;48.902;12.472;2023-03-03T16:21:09;37.92;;;19.70;;
26271;SDS011;13997;48.902;12.472;2023-03-03T16:23:55;41.38;;;21.70;;
26271;SDS011;13997;48.902;12.472;2023-03-03T16:31:35;39.95;;;19.17;;
26271;SDS011;13997;48.902;12.472;2023-03-03T16:39:36;34.33;;;18.40;;
26271;SDS011;13997;48.902;12.472;2023-03-03T16:42:31;33.45;;;18.13;;
26271;SDS011;13997;48.902;12.472;2023-03-03T16:53:00;35.03;;;18.38;;
26271;SDS011;13997;48.902;12.472;2023-03-03T16:56:00;34.60;;;18.25;;
26271;SDS011;13997;48.902;12.472;2023-03-03T16:58:40;38.70;;;19.38;;
26271;SDS011;13997;48.902;12.472;2023-03-03T17:06:44;41.97;;;21.98;;
26271;SDS011;13997;48.902;12.472;2023-03-03T17:20:28;42.60;;;22.15;;
26271;SDS011;13997;48.902;12.472;2023-03-03T17:33:59;44.15;;;23.85;;
26271;SDS011;13997;48.902;12.472;2023-03-03T17:36:39;50.38;;;24.05;;
26271;SDS011;13997;48.902;12.472;2023-03-03T17:45:01;51.22;;;24.65;;
26271;SDS011;13997;48.902;12.472;2023-03-03T17:52:51;40.95;;;21.33;;
26271;SDS011;13997;48.902;12.472;2023-03-03T17:55:31;34.25;;;17.73;;
26271;SDS011;13997;48.902;12.472;2023-03-03T18:00:47;34.40;;;17.25;;
26271;SDS011;13997;48.902;12.472;2023-03-03T18:03:56;37.50;;;18.60;;
26271;SDS011;13997;48.902;12.472;2023-03-03T18:12:37;39.63;;;20.33;;
26271;SDS011;13997;48.902;12.472;2023-03-03T18:15:09;46.60;;;21.00;;
26271;SDS011;13997;48.902;12.472;2023-03-03T18:17:50;48.85;;;22.60;;
26271;SDS011;13997;48.902;12.472;2023-03-03T18:20:52;41.15;;;20.75;;
26271;SDS011;13997;48.902;12.472;2023-03-03T18:25:56;45.92;;;23.98;;
26271;SDS011;13997;48.902;12.472;2023-03-03T18:28:36;41.30;;;21.25;;
26271;SDS011;13997;48.902;12.472;2023-03-03T18:33:43;42.22;;;20.70;;
26271;SDS011;13997;48.902;12.472;2023-03-03T18:38:50;46.15;;;21.27;;
26271;SDS011;13997;48.902;12.472;2023-03-03T18:41:22;50.90;;;22.50;;
26271;SDS011;13997;48.902;12.472;2023-03-03T18:49:04;37.10;;;19.15;;
26271;SDS011;13997;48.902;12.472;2023-03-03T18:56:48;61.60;;;28.10;;
26271;SDS011;13997;48.902;12.472;2023-03-03T19:07:47;45.08;;;19.70;;
26271;SDS011;13997;48.902;12.472;2023-03-03T19:10:47;32.88;;;17.52;;
26271;SDS011;13997;48.902;12.472;2023-03-03T19:19:01;35.38;;;16.73;;
26271;SDS011;13997;48.902;12.472;2023-03-03T19:21:33;30.90;;;16.45;;
26271;SDS011;13997;48.902;12.472;2023-03-03T19:24:03;39.88;;;18.05;;
26271;SDS011;13997;48.902;12.472;2023-03-03T19:27:00;32.65;;;17.38;;
26271;SDS011;13997;48.902;12.472;2023-03-03T19:35:03;44.65;;;19.45;;
26271;SDS011;13997;48.902;12.472;2023-03-03T19:37:49;45.45;;;19.45;;
26271;SDS011;13997;48.902;12.472;2023-03-03T19:40:36;40.85;;;20.35;;
26271;SDS011;13997;48.902;12.472;2023-03-03T19:50:52;37.92;;;17.77;;
26271;SDS011;13997;48.902;12.472;2023-03-03T19:53:33;35.17;;;17.85;;
26271;SDS011;13997;48.902;12.472;2023-03-03T19:58:35;45.08;;;22.95;;
26271;SDS011;13997;48.902;12.472;2023-03-03T20:15:22;41.55;;;20.13;;
26271;SDS011;13997;48.902;12.472;2023-03-03T20:21:23;43.33;;;18.95;;
26271;SDS011;13997;48.902;12.472;2023-03-03T20:26:30;36.35;;;19.08;;
26271;SDS011;13997;48.902;12.472;2023-03-03T20:29:15;38.78;;;19.67;;
26271;SDS011;13997;48.902;12.472;2023-03-03T20:42:46;39.72;;;19.50;;
26271;SDS011;13997;48.902;12.472;2023-03-03T20:45:40;41.83;;;20.20;;
26271;SDS011;13997;48.902;12.472;2023-03-03T20:52:09;41.58;;;20.45;;
26271;SDS011;13997;48.902;12.472;2023-03-03T20:54:50;44.53;;;21.98;;
26271;SDS011;13997;48.902;12.472;2023-03-03T21:00:18;39.90;;;20.88;;
26271;SDS011;13997;48.902;12.472;2023-03-03T21:03:25;45.13;;;22.52;;
26271;SDS011;13997;48.902;12.472;2023-03-03T21:05:52;48.05;;;25.08;;
26271;SDS011;13997;48.902;12.472;2023-03-03T21:11:08;58.25;;;27.48;;
26271;SDS011;13997;48.902;12.472;2023-03-03T21:13:41;44.20;;;22.42;;
26271;SDS011;13997;48.902;12.472;2023-03-03T21:18:40;40.15;;;20.75;;
26271;SDS011;13997;48.902;12.472;2023-03-03T21:21:06;43.38;;;21.60;;
26271;SDS011;13997;48.902;12.472;2023-03-03T21:23:32;49.10;;;22.75;;
26271;SDS011;13997;48.902;12.472;2023-03-03T21:25:58;52.67;;;22.50;;
26271;SDS011;13997;48.902;12.472;2023-03-03T21:28:27;43.80;;;22.58;;
26271;SDS011;13997;48.902;12.472;2023-03-03T21:31:03;49.63;;;22.40;;
26271;SDS011;13997;48.902;12.472;2023-03-03T21:33:41;47.45;;;24.15;;
26271;SDS011;13997;48.902;12.472;2023-03-03T21:36:07;45.55;;;23.45;;
26271;SDS011;13997;48.902;12.472;2023-03-03T21:38:35;49.78;;;22.77;;
26271;SDS011;13997;48.902;12.472;2023-03-03T21:41:02;48.88;;;24.08;;